createdAt,value
2023-03-17T00:01:21.449Z,4.63
2023-03-17T00:03:50.574Z,6.88
2023-03-17T00:06:27.097Z,5.13
2023-03-17T00:08:55.627Z,5.38
2023-03-17T00:11:24.132Z,7.68
2023-03-17T00:13:53.000Z,5.40
2023-03-17T00:16:23.591Z,5.45
2023-03-17T00:18:53.560Z,5.53
2023-03-17T00:21:27.521Z,5.95
2023-03-17T00:23:56.949Z,4.95
2023-03-17T00:26:25.414Z,5.55
2023-03-17T00:28:54.554Z,4.95
2023-03-17T00:31:23.918Z,6.13
2023-03-17T00:33:54.154Z,6.72
2023-03-17T00:36:25.277Z,6.88
2023-03-17T00:38:53.853Z,6.90
2023-03-17T00:41:22.581Z,5.80
2023-03-17T00:43:50.829Z,5.70
2023-03-17T00:46:23.595Z,5.35
2023-03-17T00:48:51.931Z,6.90
2023-03-17T00:51:20.236Z,6.45
2023-03-17T00:53:50.004Z,5.63
2023-03-17T00:56:20.058Z,5.00
2023-03-17T00:58:48.834Z,7.72
2023-03-17T01:01:18.865Z,5.35
2023-03-17T01:03:46.790Z,6.07
2023-03-17T01:06:15.612Z,4.75
2023-03-17T01:08:44.728Z,4.70
2023-03-17T01:11:18.545Z,4.70
2023-03-17T01:13:47.551Z,7.05
2023-03-17T01:16:17.012Z,8.52
2023-03-17T01:18:45.674Z,5.78
2023-03-17T01:21:13.988Z,5.90
2023-03-17T01:23:41.891Z,6.05
2023-03-17T01:26:09.567Z,5.20
2023-03-17T01:28:38.405Z,8.38
2023-03-17T01:31:06.191Z,7.38
2023-03-17T01:33:33.923Z,6.20
2023-03-17T01:36:01.958Z,5.20
2023-03-17T01:38:29.676Z,6.28
2023-03-17T01:40:57.234Z,7.10
2023-03-17T01:43:27.547Z,5.45
2023-03-17T01:46:27.489Z,6.68
2023-03-17T01:49:14.436Z,5.18
2023-03-17T01:51:47.858Z,5.75
2023-03-17T01:54:18.341Z,5.68
2023-03-17T01:56:46.540Z,5.90
2023-03-17T01:59:19.124Z,5.40
2023-03-17T02:01:50.429Z,6.70
2023-03-17T02:04:19.396Z,7.03
2023-03-17T02:06:57.443Z,5.35
2023-03-17T02:09:26.865Z,5.57
2023-03-17T02:11:55.585Z,5.47
2023-03-17T02:14:23.710Z,5.28
2023-03-17T02:16:52.666Z,7.05
2023-03-17T02:19:20.963Z,5.93
2023-03-17T02:21:51.341Z,6.50
2023-03-17T02:24:26.372Z,6.18
2023-03-17T02:26:55.658Z,5.95
2023-03-17T02:29:23.853Z,5.70
2023-03-17T02:31:51.469Z,7.60
2023-03-17T02:34:18.970Z,7.43
2023-03-17T02:36:47.483Z,6.25
2023-03-17T02:39:16.719Z,7.63
2023-03-17T02:41:44.282Z,5.32
2023-03-17T02:44:11.932Z,9.25
2023-03-17T02:46:39.466Z,7.45
2023-03-17T02:49:07.122Z,7.10
2023-03-17T02:51:34.627Z,5.78
2023-03-17T02:54:02.113Z,6.45
2023-03-17T02:56:31.439Z,6.13
2023-03-17T02:58:58.935Z,7.55
2023-03-17T03:01:27.315Z,6.65
2023-03-17T03:03:54.941Z,7.55
2023-03-17T03:06:23.945Z,5.18
2023-03-17T03:08:51.526Z,6.53
2023-03-17T03:11:19.631Z,5.47
2023-03-17T03:13:48.462Z,5.72
2023-03-17T03:16:17.236Z,5.95
2023-03-17T03:18:44.848Z,5.95
2023-03-17T03:21:12.564Z,5.88
2023-03-17T03:23:40.094Z,6.72
2023-03-17T03:26:07.705Z,6.78
2023-03-17T03:28:35.323Z,7.90
2023-03-17T03:31:04.321Z,6.50
2023-03-17T03:33:32.218Z,6.90
2023-03-17T03:35:59.753Z,7.07
2023-03-17T03:38:27.621Z,6.90
2023-03-17T03:40:55.110Z,6.72
2023-03-17T03:43:24.053Z,6.15
2023-03-17T03:45:51.955Z,5.65
2023-03-17T03:48:21.720Z,5.40
2023-03-17T03:50:49.354Z,6.40
2023-03-17T03:53:17.334Z,8.52
2023-03-17T03:55:45.132Z,6.97
2023-03-17T03:58:12.735Z,6.32
2023-03-17T04:00:40.681Z,6.70
2023-03-17T04:03:08.432Z,6.97
2023-03-17T04:05:37.285Z,6.72
2023-03-17T04:08:05.103Z,6.22
2023-03-17T04:10:32.757Z,6.95
2023-03-17T04:13:00.665Z,7.75
2023-03-17T04:15:28.186Z,7.38
2023-03-17T04:17:56.072Z,8.70
2023-03-17T04:20:23.616Z,7.45
2023-03-17T04:22:52.438Z,5.55
2023-03-17T04:25:20.322Z,9.82
2023-03-17T04:27:47.896Z,7.43
2023-03-17T04:30:16.824Z,5.03
2023-03-17T04:32:44.996Z,5.47
2023-03-17T04:35:14.373Z,7.35
2023-03-17T04:37:42.266Z,7.22
2023-03-17T04:40:13.302Z,6.63
2023-03-17T04:42:40.999Z,7.78
2023-03-17T04:45:11.180Z,5.88
2023-03-17T04:47:39.384Z,5.78
2023-03-17T04:50:08.108Z,5.70
2023-03-17T04:52:36.410Z,6.85
2023-03-17T04:55:04.144Z,7.90
2023-03-17T04:57:33.005Z,7.38
2023-03-17T05:00:00.987Z,9.15
2023-03-17T05:02:29.088Z,9.63
2023-03-17T05:04:57.141Z,10.40
2023-03-17T05:07:24.638Z,6.72
2023-03-17T05:09:52.171Z,6.45
2023-03-17T05:12:19.681Z,5.70
2023-03-17T05:14:48.520Z,6.60
2023-03-17T05:17:16.244Z,7.05
2023-03-17T05:19:43.851Z,9.32
2023-03-17T05:22:11.858Z,8.60
2023-03-17T05:24:39.363Z,8.43
2023-03-17T05:27:06.964Z,7.85
2023-03-17T05:29:34.575Z,7.32
2023-03-17T05:32:03.463Z,7.13
2023-03-17T05:34:31.245Z,16.10
2023-03-17T05:36:58.779Z,10.88
2023-03-17T05:39:26.371Z,5.85
2023-03-17T05:41:53.911Z,10.65
2023-03-17T05:44:21.689Z,11.05
2023-03-17T05:46:49.313Z,7.85
2023-03-17T05:49:19.092Z,9.07
2023-03-17T05:51:46.712Z,10.25
2023-03-17T05:54:14.351Z,17.30
2023-03-17T05:56:42.766Z,11.55
2023-03-17T05:59:10.639Z,6.38
2023-03-17T06:01:38.325Z,7.10
2023-03-17T06:04:05.798Z,6.45
2023-03-17T06:06:34.771Z,11.20
2023-03-17T06:09:02.712Z,6.25
2023-03-17T06:11:30.213Z,7.07
2023-03-17T06:13:57.895Z,6.97
2023-03-17T06:16:25.606Z,7.72
2023-03-17T06:18:53.083Z,6.70
2023-03-17T06:21:21.159Z,7.38
2023-03-17T06:23:49.999Z,8.50
2023-03-17T06:26:17.565Z,7.53
2023-03-17T06:28:45.060Z,10.15
2023-03-17T06:31:12.593Z,9.35
2023-03-17T06:33:40.164Z,8.90
2023-03-17T06:36:08.793Z,11.57
2023-03-17T06:38:36.646Z,11.27
2023-03-17T06:41:05.794Z,11.55
2023-03-17T06:43:33.278Z,12.60
2023-03-17T06:46:01.771Z,11.63
2023-03-17T06:48:29.723Z,14.23
2023-03-17T06:50:57.225Z,17.90
2023-03-17T06:53:24.717Z,13.90
2023-03-17T06:55:52.226Z,28.27
2023-03-17T06:58:21.724Z,14.63
2023-03-17T07:00:49.823Z,11.60
2023-03-17T07:03:17.512Z,6.57
2023-03-17T07:05:44.998Z,7.60
2023-03-17T07:08:12.528Z,6.10
2023-03-17T07:10:43.170Z,9.60
2023-03-17T07:13:10.746Z,12.27
2023-03-17T07:15:40.026Z,8.57
2023-03-17T07:18:07.805Z,12.43
2023-03-17T07:20:35.823Z,10.85
2023-03-17T07:23:03.586Z,6.97
2023-03-17T07:25:31.446Z,9.38
2023-03-17T07:27:59.406Z,6.82
2023-03-17T07:30:27.734Z,7.40
2023-03-17T07:32:56.584Z,11.30
2023-03-17T07:35:24.188Z,12.57
2023-03-17T07:37:51.692Z,10.32
2023-03-17T07:40:19.443Z,8.75
2023-03-17T07:42:46.952Z,10.00
2023-03-17T07:45:16.079Z,6.85
2023-03-17T07:47:43.586Z,7.50
2023-03-17T07:50:12.777Z,6.97
2023-03-17T07:52:40.962Z,6.35
2023-03-17T07:55:10.577Z,6.05
2023-03-17T07:57:38.125Z,8.25
2023-03-17T08:00:09.200Z,6.78
2023-03-17T08:02:37.408Z,8.25
2023-03-17T08:05:06.042Z,32.88
2023-03-17T08:07:34.848Z,26.80
2023-03-17T08:10:03.202Z,13.52
2023-03-17T08:12:30.724Z,10.85
2023-03-17T08:14:58.274Z,9.60
2023-03-17T08:17:27.242Z,6.05
2023-03-17T08:19:54.852Z,9.02
2023-03-17T08:22:22.707Z,9.48
2023-03-17T08:24:52.141Z,5.43
2023-03-17T08:27:21.280Z,4.88
2023-03-17T08:29:49.872Z,5.30
2023-03-17T08:32:17.753Z,5.07
2023-03-17T08:34:46.220Z,7.43
2023-03-17T08:37:13.917Z,5.00
2023-03-17T08:39:41.413Z,5.05
2023-03-17T08:42:10.223Z,5.35
2023-03-17T08:44:37.757Z,4.88
2023-03-17T08:47:05.355Z,7.30
2023-03-17T08:49:34.994Z,6.00
2023-03-17T08:52:03.434Z,5.88
2023-03-17T08:54:30.964Z,9.77
2023-03-17T08:56:59.161Z,29.25
2023-03-17T08:59:28.114Z,31.15
2023-03-17T09:01:55.742Z,26.58
2023-03-17T09:04:23.516Z,42.30
2023-03-17T09:07:02.670Z,60.40
2023-03-17T09:09:32.061Z,33.50
2023-03-17T09:11:59.620Z,43.05
2023-03-17T09:14:31.732Z,35.67
2023-03-17T09:17:00.832Z,13.90
2023-03-17T09:19:28.335Z,28.30
2023-03-17T09:21:55.841Z,10.35
2023-03-17T09:24:23.344Z,17.67
2023-03-17T09:26:51.078Z,8.23
2023-03-17T09:29:18.643Z,14.73
2023-03-17T09:31:48.467Z,9.45
2023-03-17T09:34:15.916Z,7.78
2023-03-17T09:36:43.445Z,12.43
2023-03-17T09:39:11.583Z,4.93
2023-03-17T09:41:52.131Z,12.82
2023-03-17T09:44:29.634Z,13.18
2023-03-17T09:47:05.557Z,13.40
2023-03-17T09:49:39.258Z,16.48
2023-03-17T09:52:13.277Z,18.52
2023-03-17T09:54:41.013Z,17.42
2023-03-17T09:57:14.551Z,10.13
2023-03-17T09:59:43.826Z,7.40
2023-03-17T10:02:20.226Z,7.13
2023-03-17T10:04:48.739Z,6.95
2023-03-17T10:07:19.258Z,5.00
2023-03-17T10:09:48.699Z,5.47
2023-03-17T10:12:21.310Z,43.42
2023-03-17T10:14:55.197Z,16.70
2023-03-17T10:17:27.169Z,9.13
2023-03-17T10:19:57.835Z,22.17
2023-03-17T10:22:30.314Z,19.88
2023-03-17T10:25:03.726Z,15.43
2023-03-17T10:27:32.828Z,6.20
2023-03-17T10:30:03.180Z,10.15
2023-03-17T10:32:36.195Z,9.52
2023-03-17T10:35:03.796Z,6.10
2023-03-17T10:37:36.536Z,25.83
2023-03-17T10:42:33.807Z,9.63
2023-03-17T10:45:03.259Z,38.13
2023-03-17T10:47:33.663Z,39.03
2023-03-17T10:50:05.538Z,47.88
2023-03-17T10:52:37.790Z,4.53
2023-03-17T10:55:07.298Z,8.65
2023-03-17T10:57:38.795Z,5.10
2023-03-17T11:00:14.563Z,7.10
2023-03-17T11:02:48.411Z,7.50
2023-03-17T11:05:21.673Z,16.75
2023-03-17T11:07:49.449Z,65.93
2023-03-17T11:10:20.992Z,31.67
2023-03-17T11:12:50.271Z,47.15
2023-03-17T11:15:20.192Z,25.58
2023-03-17T11:17:56.333Z,24.30
2023-03-17T11:20:39.421Z,25.73
2023-03-17T11:23:11.668Z,20.10
2023-03-17T11:25:41.887Z,16.65
2023-03-17T11:28:18.983Z,14.75
2023-03-17T11:30:53.715Z,15.75
2023-03-17T11:33:40.198Z,7.70
2023-03-17T11:36:17.595Z,7.05
2023-03-17T11:38:54.005Z,11.80
2023-03-17T11:41:31.773Z,10.40
2023-03-17T11:44:13.441Z,7.95
2023-03-17T11:46:45.180Z,10.50
2023-03-17T11:49:18.777Z,14.33
2023-03-17T11:51:53.146Z,11.10
2023-03-17T11:54:24.931Z,7.90
2023-03-17T11:56:54.165Z,5.70
2023-03-17T11:59:27.956Z,8.18
2023-03-17T12:01:59.770Z,13.75
2023-03-17T12:04:34.451Z,14.75
2023-03-17T12:07:09.173Z,6.82
2023-03-17T12:09:40.797Z,3.65
2023-03-17T12:12:10.836Z,56.22
2023-03-17T12:14:42.590Z,17.80
2023-03-17T12:17:15.210Z,11.43
2023-03-17T12:22:19.902Z,8.07
2023-03-17T12:24:51.940Z,5.53
2023-03-17T12:27:24.365Z,3.80
2023-03-17T12:29:55.905Z,3.90
2023-03-17T12:32:26.250Z,5.88
2023-03-17T12:34:57.589Z,3.15
2023-03-17T12:37:27.646Z,3.95
2023-03-17T12:40:00.641Z,2.05
2023-03-17T12:42:38.657Z,2.13
2023-03-17T12:45:31.284Z,3.38
2023-03-17T12:48:13.299Z,5.25
2023-03-17T12:50:50.736Z,3.57
2023-03-17T12:53:26.576Z,12.93
2023-03-17T12:55:55.648Z,34.58
2023-03-17T12:58:29.122Z,10.02
2023-03-17T13:01:01.888Z,7.70
2023-03-17T13:03:32.089Z,5.18
2023-03-17T13:06:03.266Z,5.35
2023-03-17T13:08:32.921Z,4.88
2023-03-17T13:11:16.950Z,4.10
2023-03-17T13:13:48.110Z,2.53
2023-03-17T13:16:32.045Z,3.75
2023-03-17T13:19:15.245Z,2.97
2023-03-17T13:21:48.414Z,1.92
2023-03-17T13:24:37.125Z,5.03
2023-03-17T13:27:05.458Z,3.25
2023-03-17T13:29:45.056Z,2.83
2023-03-17T13:32:35.041Z,3.47
2023-03-17T13:35:22.140Z,1.67
2023-03-17T13:38:23.086Z,2.08
2023-03-17T13:41:02.873Z,2.88
2023-03-17T13:43:46.393Z,4.53
2023-03-17T13:46:22.335Z,2.60
2023-03-17T13:48:49.975Z,4.03
2023-03-17T13:51:21.223Z,2.63
2023-03-17T13:53:52.657Z,3.22
2023-03-17T13:56:25.554Z,1.92
2023-03-17T13:58:59.677Z,2.92
2023-03-17T14:01:27.513Z,3.00
2023-03-17T14:03:56.754Z,4.03
2023-03-17T14:06:28.067Z,1.45
2023-03-17T14:08:58.605Z,1.13
2023-03-17T14:11:33.682Z,1.42
2023-03-17T14:14:13.326Z,3.83
2023-03-17T14:16:44.725Z,1.88
2023-03-17T14:19:18.800Z,1.40
2023-03-17T14:21:46.380Z,1.63
2023-03-17T14:24:24.342Z,1.70
2023-03-17T14:26:53.773Z,3.58
2023-03-17T14:29:25.723Z,2.22
2023-03-17T14:32:02.144Z,2.72
2023-03-17T14:34:29.958Z,1.55
2023-03-17T14:37:01.502Z,3.50
2023-03-17T14:39:29.523Z,2.83
2023-03-17T14:42:03.524Z,5.10
2023-03-17T14:44:37.878Z,4.05
2023-03-17T14:47:07.126Z,2.95
2023-03-17T14:49:34.639Z,2.47
2023-03-17T14:52:02.591Z,1.65
2023-03-17T14:54:32.663Z,3.78
2023-03-17T14:57:03.348Z,3.85
2023-03-17T14:59:32.505Z,1.77
2023-03-17T15:02:02.174Z,2.45
2023-03-17T15:04:31.177Z,2.97
2023-03-17T15:07:00.275Z,2.88
2023-03-17T15:09:31.566Z,4.35
2023-03-17T15:12:06.830Z,22.35
2023-03-17T15:14:35.634Z,21.20
2023-03-17T15:17:05.284Z,9.50
2023-03-17T15:19:40.274Z,18.15
2023-03-17T15:22:25.100Z,11.05
2023-03-17T15:24:54.972Z,3.08
2023-03-17T15:27:23.771Z,8.48
2023-03-17T15:29:51.270Z,3.47
2023-03-17T15:32:20.458Z,3.78
2023-03-17T15:34:48.641Z,6.50
2023-03-17T15:37:18.065Z,5.45
2023-03-17T15:39:45.614Z,8.15
2023-03-17T15:42:13.106Z,8.68
2023-03-17T15:44:41.904Z,3.42
2023-03-17T15:47:13.383Z,3.33
2023-03-17T15:49:41.021Z,4.75
2023-03-17T15:52:16.283Z,4.93
2023-03-17T15:54:43.893Z,8.43
2023-03-17T15:57:12.733Z,5.35
2023-03-17T15:59:41.851Z,5.25
2023-03-17T16:02:28.399Z,6.57
2023-03-17T16:04:56.223Z,2.92
2023-03-17T16:07:23.965Z,3.90
2023-03-17T16:09:51.460Z,3.35
2023-03-17T16:12:19.813Z,2.75
2023-03-17T16:14:48.664Z,3.42
2023-03-17T16:17:19.635Z,2.90
2023-03-17T16:19:47.140Z,4.07
2023-03-17T16:22:35.841Z,3.90
2023-03-17T16:25:04.069Z,4.53
2023-03-17T16:27:31.553Z,2.60
2023-03-17T16:30:00.353Z,2.85
2023-03-17T16:32:28.168Z,6.45
2023-03-17T16:34:55.727Z,4.80
2023-03-17T16:37:23.188Z,7.65
2023-03-17T16:39:52.303Z,5.72
2023-03-17T16:42:23.261Z,7.18
2023-03-17T16:44:51.102Z,4.22
2023-03-17T16:47:20.010Z,8.18
2023-03-17T16:49:47.503Z,4.40
2023-03-17T16:52:15.248Z,3.58
2023-03-17T16:54:42.865Z,4.60
2023-03-17T16:57:12.719Z,5.35
2023-03-17T16:59:40.214Z,6.22
2023-03-17T17:02:15.916Z,4.20
2023-03-17T17:04:45.077Z,5.60
2023-03-17T17:07:12.756Z,4.75
2023-03-17T17:09:40.515Z,4.53
2023-03-17T17:12:08.887Z,13.02
2023-03-17T17:14:36.955Z,22.30
2023-03-17T17:17:04.793Z,19.05
2023-03-17T17:19:32.282Z,11.85
2023-03-17T17:22:01.191Z,6.57
2023-03-17T17:24:29.421Z,5.60
2023-03-17T17:26:57.111Z,9.77
2023-03-17T17:29:24.700Z,13.43
2023-03-17T17:31:52.399Z,6.50
2023-03-17T17:34:20.025Z,3.60
2023-03-17T17:36:47.526Z,3.70
2023-03-17T17:39:16.626Z,8.60
2023-03-17T17:41:44.160Z,5.18
2023-03-17T17:44:11.651Z,18.40
2023-03-17T17:46:39.330Z,42.83
2023-03-17T17:49:07.017Z,42.70
2023-03-17T17:51:34.631Z,27.17
2023-03-17T17:54:02.201Z,19.55
2023-03-17T17:56:32.578Z,6.40
2023-03-17T17:59:00.476Z,5.72
2023-03-17T18:01:28.196Z,6.20
2023-03-17T18:03:56.039Z,9.75
2023-03-17T18:06:23.711Z,5.22
2023-03-17T18:08:51.659Z,4.60
2023-03-17T18:11:19.684Z,8.48
2023-03-17T18:13:48.499Z,3.47
2023-03-17T18:16:17.903Z,5.65
2023-03-17T18:18:46.157Z,4.28
2023-03-17T18:21:13.730Z,4.93
2023-03-17T18:23:46.985Z,5.60
2023-03-17T18:26:16.266Z,8.60
2023-03-17T18:28:44.343Z,6.10
2023-03-17T18:31:16.646Z,5.80
2023-03-17T18:33:45.117Z,4.00
2023-03-17T18:36:12.831Z,6.68
2023-03-17T18:38:40.695Z,31.88
2023-03-17T18:41:11.005Z,29.95
2023-03-17T18:43:38.951Z,28.45
2023-03-17T18:46:07.510Z,62.20
2023-03-17T18:48:36.532Z,23.52
2023-03-17T18:51:04.341Z,21.08
2023-03-17T18:53:34.299Z,41.50
2023-03-17T18:56:02.155Z,45.30
2023-03-17T18:58:29.884Z,28.73
2023-03-17T19:00:59.276Z,53.95
2023-03-17T19:03:27.669Z,14.30
2023-03-17T19:05:56.810Z,15.38
2023-03-17T19:08:24.712Z,23.80
2023-03-17T19:10:52.241Z,11.93
2023-03-17T19:13:19.866Z,57.85
2023-03-17T19:15:47.950Z,10.10
2023-03-17T19:18:16.192Z,15.63
2023-03-17T19:20:43.680Z,7.32
2023-03-17T19:23:12.497Z,6.25
2023-03-17T19:25:40.123Z,4.63
2023-03-17T19:28:07.826Z,7.70
2023-03-17T19:30:35.843Z,6.10
2023-03-17T19:33:03.766Z,7.32
2023-03-17T19:35:31.531Z,5.90
2023-03-17T19:37:59.094Z,6.90
2023-03-17T19:40:28.264Z,5.93
2023-03-17T19:42:56.060Z,14.13
2023-03-17T19:45:23.959Z,6.07
2023-03-17T19:47:51.501Z,7.55
2023-03-17T19:50:19.213Z,5.70
2023-03-17T19:52:48.744Z,8.13
2023-03-17T19:55:17.792Z,9.02
2023-03-17T19:57:46.871Z,7.22
2023-03-17T20:00:15.061Z,5.13
2023-03-17T20:02:42.634Z,5.63
2023-03-17T20:05:10.799Z,7.90
2023-03-17T20:07:38.526Z,13.10
2023-03-17T20:10:07.693Z,11.60
2023-03-17T20:12:37.938Z,8.32
2023-03-17T20:15:08.564Z,8.13
2023-03-17T20:17:37.348Z,5.72
2023-03-17T20:20:06.148Z,6.50
2023-03-17T20:22:34.197Z,6.82
2023-03-17T20:25:01.830Z,6.97
2023-03-17T20:27:31.398Z,6.70
2023-03-17T20:29:59.078Z,7.90
2023-03-17T20:32:29.886Z,5.72
2023-03-17T20:34:58.297Z,8.68
2023-03-17T20:37:25.973Z,5.53
2023-03-17T20:39:54.238Z,8.32
2023-03-17T20:42:21.759Z,9.57
2023-03-17T20:44:52.810Z,9.65
2023-03-17T20:47:22.000Z,8.13
2023-03-17T20:49:51.139Z,6.75
2023-03-17T20:52:18.732Z,13.07
2023-03-17T20:54:46.813Z,5.50
2023-03-17T20:57:15.977Z,8.73
2023-03-17T20:59:43.739Z,7.88
2023-03-17T21:02:15.779Z,7.32
2023-03-17T21:04:46.668Z,9.27
2023-03-17T21:07:16.031Z,6.18
2023-03-17T21:09:44.259Z,5.05
2023-03-17T21:12:14.142Z,7.88
2023-03-17T21:14:42.387Z,6.55
2023-03-17T21:17:10.201Z,4.90
2023-03-17T21:19:38.014Z,5.22
2023-03-17T21:22:05.991Z,8.00
2023-03-17T21:24:37.267Z,5.45
2023-03-17T21:27:07.646Z,4.97
2023-03-17T21:29:36.107Z,8.45
2023-03-17T21:32:03.716Z,6.22
2023-03-17T21:34:32.494Z,5.03
2023-03-17T21:37:01.244Z,6.40
2023-03-17T21:39:29.816Z,15.43
2023-03-17T21:42:00.850Z,4.43
2023-03-17T21:44:28.569Z,4.47
2023-03-17T21:46:56.880Z,5.05
2023-03-17T21:49:24.777Z,6.22
2023-03-17T21:51:52.824Z,5.45
2023-03-17T21:54:20.357Z,5.07
2023-03-17T21:56:49.331Z,4.47
2023-03-17T21:59:18.529Z,5.10
2023-03-17T22:01:46.048Z,6.80
2023-03-17T22:04:14.044Z,5.68
2023-03-17T22:06:41.564Z,5.55
2023-03-17T22:09:10.855Z,7.75
2023-03-17T22:11:38.420Z,6.15
2023-03-17T22:14:06.445Z,5.95
2023-03-17T22:16:35.317Z,6.22
2023-03-17T22:19:03.509Z,4.60
2023-03-17T22:21:31.784Z,4.97
2023-03-17T22:23:59.246Z,7.00
2023-03-17T22:26:27.817Z,8.05
2023-03-17T22:28:55.671Z,4.43
2023-03-17T22:31:24.299Z,7.63
2023-03-17T22:33:55.248Z,6.53
2023-03-17T22:36:23.347Z,10.23
2023-03-17T22:38:50.986Z,5.65
2023-03-17T22:41:20.843Z,4.60
2023-03-17T22:43:48.587Z,4.55
2023-03-17T22:46:17.397Z,4.95
2023-03-17T22:48:46.125Z,5.28
2023-03-17T22:51:17.511Z,6.45
2023-03-17T22:53:45.394Z,5.43
2023-03-17T22:56:14.448Z,9.02
2023-03-17T22:58:42.541Z,4.22
2023-03-17T23:01:12.221Z,8.18
2023-03-17T23:03:40.454Z,5.70
2023-03-17T23:06:08.798Z,5.60
2023-03-17T23:08:38.946Z,6.03
2023-03-17T23:11:10.518Z,5.25
2023-03-17T23:13:39.758Z,4.13
2023-03-17T23:16:08.347Z,5.85
2023-03-17T23:18:36.198Z,7.40
2023-03-17T23:21:05.227Z,6.65
2023-03-17T23:23:33.652Z,7.93
2023-03-17T23:26:03.060Z,7.88
2023-03-17T23:28:31.022Z,6.00
2023-03-17T23:30:59.690Z,6.10
2023-03-17T23:33:28.249Z,5.00
2023-03-17T23:35:56.331Z,5.47
2023-03-17T23:38:24.289Z,5.03
2023-03-17T23:40:52.477Z,4.95
2023-03-17T23:43:21.460Z,5.50
2023-03-17T23:45:52.582Z,5.65
2023-03-17T23:48:20.646Z,4.68
2023-03-17T23:50:52.264Z,6.65
2023-03-17T23:53:19.910Z,4.55
2023-03-17T23:55:47.781Z,6.90
2023-03-17T23:58:15.726Z,5.10
